createdAt,value
2018-12-17T00:00:56.992Z,7.10
2018-12-17T00:03:38.803Z,9.60
2018-12-17T00:06:14.534Z,6.97
2018-12-17T00:08:47.815Z,6.90
2018-12-17T00:11:23.548Z,6.33
2018-12-17T00:14:04.750Z,7.33
2018-12-17T00:16:44.451Z,7.20
2018-12-17T00:19:17.014Z,8.23
2018-12-17T00:21:58.448Z,7.43
2018-12-17T00:24:40.183Z,7.03
2018-12-17T00:27:22.077Z,8.47
2018-12-17T00:29:55.333Z,8.37
2018-12-17T00:32:30.916Z,8.00
2018-12-17T00:35:12.409Z,7.83
2018-12-17T00:37:54.344Z,7.57
2018-12-17T00:40:26.805Z,7.37
2018-12-17T00:43:08.576Z,7.63
2018-12-17T00:45:49.771Z,7.40
2018-12-17T00:48:31.915Z,7.27
2018-12-17T00:51:14.762Z,7.13
2018-12-17T00:53:54.088Z,7.50
2018-12-17T00:56:24.859Z,6.77
2018-12-17T00:58:58.098Z,6.63
2018-12-17T01:01:31.372Z,8.03
2018-12-17T01:04:13.400Z,7.70
2018-12-17T01:06:55.396Z,6.97
2018-12-17T01:09:28.655Z,7.17
2018-12-17T01:12:09.809Z,7.77
2018-12-17T01:14:55.744Z,7.40
2018-12-17T01:17:37.759Z,7.97
2018-12-17T01:20:13.175Z,8.13
2018-12-17T01:22:54.347Z,7.53
2018-12-17T01:25:36.289Z,7.53
2018-12-17T01:28:22.148Z,7.80
2018-12-17T01:30:53.287Z,6.87
2018-12-17T01:33:26.407Z,7.07
2018-12-17T01:36:08.152Z,7.23
2018-12-17T01:38:50.070Z,6.73
2018-12-17T01:41:23.107Z,7.47
2018-12-17T01:47:04.528Z,6.93
2018-12-17T01:49:46.408Z,6.93
2018-12-17T01:52:28.387Z,6.63
2018-12-17T01:55:03.103Z,8.87
2018-12-17T01:57:44.502Z,6.90
2018-12-17T02:00:17.574Z,7.00
2018-12-17T02:02:48.782Z,6.50
2018-12-17T02:05:30.756Z,6.73
2018-12-17T02:08:12.560Z,7.07
2018-12-17T02:10:44.999Z,7.20
2018-12-17T02:13:26.070Z,6.13
2018-12-17T02:16:07.245Z,5.27
2018-12-17T02:18:44.842Z,6.73
2018-12-17T02:21:26.656Z,6.17
2018-12-17T02:24:13.399Z,5.63
2018-12-17T02:26:55.352Z,6.77
2018-12-17T02:29:28.484Z,7.03
2018-12-17T02:32:09.612Z,5.93
2018-12-17T02:34:42.803Z,6.13
2018-12-17T02:37:24.565Z,6.47
2018-12-17T02:39:57.732Z,7.10
2018-12-17T02:42:39.061Z,7.20
2018-12-17T02:45:20.915Z,7.07
2018-12-17T02:48:02.131Z,7.50
2018-12-17T02:50:35.148Z,6.30
2018-12-17T02:53:17.293Z,7.50
2018-12-17T02:55:59.199Z,7.53
2018-12-17T02:58:44.149Z,6.47
2018-12-17T03:01:24.203Z,6.03
2018-12-17T03:03:57.277Z,6.70
2018-12-17T03:06:39.099Z,7.80
2018-12-17T03:09:12.404Z,6.03
2018-12-17T03:11:47.825Z,5.97
2018-12-17T03:14:22.876Z,6.70
2018-12-17T03:16:55.527Z,6.77
2018-12-17T03:19:31.183Z,6.93
2018-12-17T03:22:06.058Z,6.00
2018-12-17T03:24:47.460Z,7.37
2018-12-17T03:27:29.402Z,6.27
2018-12-17T03:30:02.547Z,6.80
2018-12-17T03:32:44.608Z,5.97
2018-12-17T03:35:26.543Z,6.23
2018-12-17T03:38:08.215Z,5.57
2018-12-17T03:40:41.453Z,5.47
2018-12-17T03:43:23.403Z,6.87
2018-12-17T03:46:05.168Z,5.70
2018-12-17T03:48:46.941Z,6.77
2018-12-17T03:51:28.683Z,7.80
2018-12-17T03:54:10.706Z,7.00
2018-12-17T03:56:45.350Z,7.43
2018-12-17T03:59:18.107Z,6.10
2018-12-17T04:02:00.072Z,7.20
2018-12-17T04:04:35.578Z,6.17
2018-12-17T04:07:17.088Z,6.50
2018-12-17T04:09:50.558Z,6.40
2018-12-17T04:12:32.273Z,6.40
2018-12-17T04:15:14.212Z,5.73
2018-12-17T04:17:56.235Z,6.00
2018-12-17T04:20:29.287Z,5.80
2018-12-17T04:23:11.157Z,6.30
2018-12-17T04:25:46.401Z,7.00
2018-12-17T04:28:34.093Z,7.00
2018-12-17T04:31:15.671Z,6.97
2018-12-17T04:33:51.556Z,6.77
2018-12-17T04:36:32.696Z,6.87
2018-12-17T04:39:07.500Z,6.47
2018-12-17T04:41:49.072Z,5.70
2018-12-17T04:44:24.628Z,6.17
2018-12-17T04:47:06.109Z,7.43
2018-12-17T04:49:39.171Z,7.77
2018-12-17T04:52:21.084Z,6.17
2018-12-17T04:54:52.179Z,7.37
2018-12-17T04:57:34.747Z,7.40
2018-12-17T05:00:08.969Z,7.07
2018-12-17T05:02:50.124Z,9.07
2018-12-17T05:05:31.932Z,8.60
2018-12-17T05:08:13.879Z,7.57
2018-12-17T05:10:46.256Z,8.03
2018-12-17T05:13:29.103Z,7.83
2018-12-17T05:16:10.872Z,6.97
2018-12-17T05:18:51.903Z,8.03
2018-12-17T05:21:33.616Z,8.10
2018-12-17T05:24:05.858Z,7.83
2018-12-17T05:26:47.984Z,7.37
2018-12-17T05:29:23.583Z,7.83
2018-12-17T05:31:56.352Z,8.37
2018-12-17T05:34:29.272Z,7.73
2018-12-17T05:37:16.275Z,8.23
2018-12-17T05:39:49.672Z,7.23
2018-12-17T05:42:31.221Z,7.50
2018-12-17T05:45:19.190Z,7.77
2018-12-17T05:48:00.978Z,7.30
2018-12-17T05:50:37.069Z,7.70
2018-12-17T05:53:19.065Z,7.13
2018-12-17T05:56:03.107Z,7.13
2018-12-17T05:58:45.011Z,6.80
2018-12-17T06:01:32.467Z,7.27
2018-12-17T06:04:14.384Z,7.97
2018-12-17T06:06:56.339Z,7.30
2018-12-17T06:09:31.771Z,8.17
2018-12-17T06:12:12.968Z,7.23
2018-12-17T06:14:45.983Z,7.37
2018-12-17T06:17:27.951Z,7.80
2018-12-17T06:20:09.991Z,7.27
2018-12-17T06:22:51.791Z,7.57
2018-12-17T06:25:34.435Z,7.47
2018-12-17T06:28:09.471Z,7.53
2018-12-17T06:30:43.244Z,7.60
2018-12-17T06:33:24.899Z,8.93
2018-12-17T06:36:07.203Z,7.53
2018-12-17T06:38:49.015Z,8.40
2018-12-17T06:44:30.654Z,8.63
2018-12-17T06:47:12.978Z,8.17
2018-12-17T06:49:46.023Z,7.67
2018-12-17T06:52:27.967Z,7.67
2018-12-17T06:55:09.828Z,9.00
2018-12-17T06:57:51.588Z,8.73
2018-12-17T07:00:25.187Z,8.40
2018-12-17T07:03:06.997Z,8.57
2018-12-17T07:05:42.467Z,7.33
2018-12-17T07:08:25.147Z,7.70
2018-12-17T07:11:00.521Z,7.97
2018-12-17T07:13:41.759Z,8.93
2018-12-17T07:16:23.755Z,8.47
2018-12-17T07:18:57.083Z,8.13
2018-12-17T07:21:39.418Z,9.43
2018-12-17T07:24:21.174Z,8.47
2018-12-17T07:27:03.064Z,10.10
2018-12-17T07:29:36.304Z,7.60
2018-12-17T07:32:11.722Z,9.00
2018-12-17T07:34:47.127Z,8.87
2018-12-17T07:37:28.536Z,9.33
2018-12-17T07:40:01.560Z,9.93
2018-12-17T07:42:43.327Z,9.43
2018-12-17T07:45:26.231Z,8.53
2018-12-17T07:48:08.119Z,8.97
2018-12-17T07:50:41.267Z,8.37
2018-12-17T07:53:23.207Z,9.37
2018-12-17T07:56:05.104Z,7.93
2018-12-17T07:58:46.875Z,7.70
2018-12-17T08:01:22.406Z,8.13
2018-12-17T08:03:55.084Z,9.63
2018-12-17T08:06:28.308Z,8.80
2018-12-17T08:09:01.588Z,9.23
2018-12-17T08:11:43.598Z,9.10
2018-12-17T08:14:25.556Z,9.93
2018-12-17T08:17:07.527Z,8.50
2018-12-17T08:19:40.773Z,9.83
2018-12-17T08:22:23.059Z,9.50
2018-12-17T08:24:53.679Z,9.00
2018-12-17T08:27:36.809Z,8.60
2018-12-17T08:30:08.626Z,10.00
2018-12-17T08:32:49.673Z,9.30
2018-12-17T08:35:31.641Z,9.40
2018-12-17T08:38:02.795Z,8.77
2018-12-17T08:40:35.843Z,9.70
2018-12-17T08:43:18.016Z,8.90
2018-12-17T08:45:59.967Z,9.63
2018-12-17T08:48:41.928Z,10.50
2018-12-17T08:51:13.038Z,9.63
2018-12-17T08:53:54.958Z,8.20
2018-12-17T08:56:36.644Z,9.50
2018-12-17T08:59:09.763Z,10.03
2018-12-17T09:01:51.521Z,9.77
2018-12-17T09:04:33.315Z,9.20
2018-12-17T09:07:15.045Z,8.63
2018-12-17T09:09:48.114Z,8.50
2018-12-17T09:12:19.340Z,8.03
2018-12-17T09:15:01.336Z,8.53
2018-12-17T09:17:43.077Z,9.87
2018-12-17T09:20:16.299Z,9.20
2018-12-17T09:22:58.278Z,8.90
2018-12-17T09:25:33.907Z,8.30
2018-12-17T09:28:15.180Z,7.33
2018-12-17T09:30:48.423Z,10.03
2018-12-17T09:33:30.166Z,10.57
2018-12-17T09:36:17.079Z,10.00
2018-12-17T09:38:50.116Z,9.30
2018-12-17T09:41:31.429Z,9.37
2018-12-17T09:44:14.309Z,8.73
2018-12-17T09:46:56.343Z,8.60
2018-12-17T09:49:29.603Z,9.97
2018-12-17T09:52:11.658Z,8.83
2018-12-17T09:57:25.622Z,9.57
2018-12-17T09:59:58.751Z,9.57
2018-12-17T10:02:40.724Z,9.37
2018-12-17T10:05:22.605Z,9.37
2018-12-17T10:08:03.807Z,9.20
2018-12-17T10:10:36.915Z,10.13
2018-12-17T10:13:15.897Z,8.93
2018-12-17T10:15:57.132Z,9.87
2018-12-17T10:18:39.064Z,9.53
2018-12-17T10:21:18.333Z,9.33
2018-12-17T10:23:51.232Z,10.33
2018-12-17T10:26:33.116Z,9.53
2018-12-17T10:29:06.076Z,10.00
2018-12-17T10:31:47.916Z,10.27
2018-12-17T10:34:29.735Z,9.83
2018-12-17T10:37:05.357Z,9.97
2018-12-17T10:39:38.200Z,9.57
2018-12-17T10:42:09.239Z,9.33
2018-12-17T10:44:51.063Z,8.90
2018-12-17T10:47:32.319Z,9.53
2018-12-17T10:50:03.767Z,10.23
2018-12-17T10:52:38.829Z,10.10
2018-12-17T10:55:20.156Z,10.57
2018-12-17T10:58:02.059Z,9.50
2018-12-17T11:00:40.529Z,9.77
2018-12-17T11:03:27.064Z,10.10
2018-12-17T11:06:08.645Z,9.57
2018-12-17T11:08:50.630Z,9.60
2018-12-17T11:11:25.512Z,11.23
2018-12-17T11:14:08.406Z,11.57
2018-12-17T11:16:49.897Z,9.07
2018-12-17T11:19:23.051Z,9.87
2018-12-17T11:21:55.513Z,11.10
2018-12-17T11:24:26.467Z,9.67
2018-12-17T11:27:01.967Z,9.73
2018-12-17T11:29:34.611Z,9.60
2018-12-17T11:32:12.204Z,9.00
2018-12-17T11:34:53.784Z,9.73
2018-12-17T11:37:35.669Z,9.73
2018-12-17T11:40:11.199Z,9.43
2018-12-17T11:42:52.640Z,9.40
2018-12-17T11:45:33.807Z,10.93
2018-12-17T11:48:04.907Z,10.73
2018-12-17T11:50:39.153Z,10.43
2018-12-17T11:53:20.952Z,10.47
2018-12-17T12:01:05.058Z,10.60
2018-12-17T12:03:46.656Z,10.27
2018-12-17T12:06:17.930Z,10.23
2018-12-17T12:08:50.968Z,9.60
2018-12-17T12:11:32.897Z,9.60
2018-12-17T12:14:14.760Z,9.17
2018-12-17T12:16:56.817Z,9.90
2018-12-17T12:19:29.920Z,9.93
2018-12-17T12:22:12.096Z,9.47
2018-12-17T12:24:53.656Z,10.00
2018-12-17T12:27:29.552Z,11.40
2018-12-17T12:30:02.744Z,10.40
2018-12-17T12:32:34.132Z,10.60
2018-12-17T12:35:16.044Z,9.80
2018-12-17T12:37:57.868Z,9.97
2018-12-17T12:40:31.011Z,10.30
2018-12-17T12:43:12.736Z,10.70
2018-12-17T12:45:54.741Z,10.00
2018-12-17T12:48:36.832Z,9.73
2018-12-17T12:51:18.827Z,9.47
2018-12-17T12:54:00.845Z,10.03
2018-12-17T12:56:42.740Z,9.10
2018-12-17T12:59:18.282Z,9.27
2018-12-17T13:01:59.698Z,9.10
2018-12-17T13:04:41.651Z,9.43
2018-12-17T13:07:23.467Z,10.83
2018-12-17T13:09:55.788Z,10.60
2018-12-17T13:12:37.772Z,9.53
2018-12-17T13:15:19.784Z,9.80
2018-12-17T13:18:00.892Z,9.67
2018-12-17T13:20:34.035Z,9.40
2018-12-17T13:23:21.475Z,9.10
2018-12-17T13:26:03.270Z,9.10
2018-12-17T13:28:40.725Z,9.47
2018-12-17T13:31:22.061Z,9.90
2018-12-17T13:33:57.511Z,9.47
2018-12-17T13:36:39.112Z,8.47
2018-12-17T13:39:12.454Z,9.90
2018-12-17T13:41:54.620Z,9.67
2018-12-17T13:44:36.451Z,9.00
2018-12-17T13:47:17.639Z,8.83
2018-12-17T13:49:50.699Z,8.93
2018-12-17T13:52:36.891Z,8.90
2018-12-17T13:55:18.688Z,9.50
2018-12-17T13:58:00.632Z,9.17
2018-12-17T14:00:32.991Z,8.23
2018-12-17T14:03:16.871Z,8.43
2018-12-17T14:05:58.840Z,8.63
2018-12-17T14:08:30.127Z,8.87
2018-12-17T14:11:04.919Z,8.63
2018-12-17T14:13:35.499Z,8.87
2018-12-17T14:16:17.448Z,8.80
2018-12-17T14:18:58.130Z,10.03
2018-12-17T14:21:44.434Z,10.90
2018-12-17T14:24:26.260Z,12.00
2018-12-17T14:27:08.000Z,8.80
2018-12-17T14:29:49.868Z,9.00
2018-12-17T14:32:30.920Z,8.57
2018-12-17T14:35:06.559Z,8.30
2018-12-17T14:37:53.027Z,8.57
2018-12-17T14:40:25.955Z,8.37
2018-12-17T14:43:07.699Z,9.40
2018-12-17T14:45:42.412Z,9.13
2018-12-17T14:48:23.962Z,9.00
2018-12-17T14:50:56.927Z,8.50
2018-12-17T14:53:38.824Z,7.20
2018-12-17T14:56:20.864Z,7.27
2018-12-17T14:58:53.915Z,6.50
2018-12-17T15:01:24.951Z,9.73
2018-12-17T15:04:06.985Z,7.30
2018-12-17T15:06:48.687Z,7.50
2018-12-17T15:09:21.131Z,6.33
2018-12-17T15:12:03.117Z,6.37
2018-12-17T15:14:44.243Z,6.13
2018-12-17T15:17:26.157Z,5.90
2018-12-17T15:20:08.402Z,6.93
2018-12-17T15:22:50.179Z,7.60
2018-12-17T15:25:31.992Z,7.90
2018-12-17T15:28:14.036Z,7.37
2018-12-17T15:30:47.331Z,7.10
2018-12-17T15:33:29.275Z,6.80
2018-12-17T15:36:10.992Z,5.20
2018-12-17T15:38:52.962Z,5.60
2018-12-17T15:41:45.428Z,5.40
2018-12-17T15:44:26.844Z,5.23
2018-12-17T15:47:04.467Z,5.63
2018-12-17T15:49:36.941Z,6.53
2018-12-17T15:52:08.051Z,5.87
2018-12-17T15:54:49.953Z,7.27
2018-12-17T15:57:31.148Z,6.77
2018-12-17T16:00:04.951Z,6.97
2018-12-17T16:02:46.120Z,6.57
2018-12-17T16:05:17.484Z,6.60
2018-12-17T16:07:59.108Z,5.63
2018-12-17T16:10:32.255Z,5.80
2018-12-17T16:13:14.111Z,6.60
2018-12-17T16:15:55.807Z,5.93
2018-12-17T16:18:43.676Z,5.97
2018-12-17T16:21:25.492Z,5.60
2018-12-17T16:23:55.983Z,5.93
2018-12-17T16:26:38.043Z,5.80
2018-12-17T16:29:11.224Z,7.03
2018-12-17T16:31:57.273Z,6.23
2018-12-17T16:34:37.267Z,7.73
2018-12-17T16:37:19.293Z,8.23
2018-12-17T16:39:52.423Z,8.77
2018-12-17T16:42:34.579Z,6.37
2018-12-17T16:45:15.747Z,8.60
2018-12-17T16:47:46.889Z,10.47
2018-12-17T16:50:33.116Z,9.10
2018-12-17T16:53:15.140Z,9.33
2018-12-17T16:55:57.024Z,9.23
2018-12-17T16:58:28.054Z,8.27
2018-12-17T17:01:03.385Z,7.47
2018-12-17T17:03:45.543Z,8.07
2018-12-17T17:06:27.541Z,7.90
2018-12-17T17:09:01.232Z,6.53
2018-12-17T17:11:42.943Z,6.63
2018-12-17T17:14:24.775Z,5.73
2018-12-17T17:17:06.160Z,7.97
2018-12-17T17:19:39.175Z,8.97
2018-12-17T17:22:20.841Z,7.43
2018-12-17T17:24:52.425Z,11.07
2018-12-17T17:27:23.405Z,11.80
2018-12-17T17:29:59.325Z,10.90
2018-12-17T17:32:41.063Z,8.90
2018-12-17T17:35:23.305Z,8.37
2018-12-17T17:38:04.938Z,7.33
2018-12-17T17:40:38.554Z,7.40
2018-12-17T17:43:21.233Z,7.67
2018-12-17T17:46:02.989Z,8.03
2018-12-17T17:48:44.734Z,7.67
2018-12-17T17:51:33.195Z,7.33
2018-12-17T17:54:04.023Z,7.23
2018-12-17T17:56:35.246Z,6.27
2018-12-17T17:59:07.648Z,7.23
2018-12-17T18:01:49.436Z,7.30
2018-12-17T18:04:31.356Z,7.50
2018-12-17T18:07:14.164Z,6.10
2018-12-17T18:09:47.376Z,6.87
2018-12-17T18:12:29.437Z,7.60
2018-12-17T18:15:11.456Z,7.70
2018-12-17T18:17:46.198Z,7.90
2018-12-17T18:20:18.894Z,10.83
2018-12-17T18:22:54.459Z,8.80
2018-12-17T18:25:44.396Z,7.53
2018-12-17T18:28:25.911Z,7.67
2018-12-17T18:30:57.035Z,10.17
2018-12-17T18:33:38.107Z,10.50
2018-12-17T18:36:20.000Z,17.47
2018-12-17T18:38:53.383Z,9.97
2018-12-17T18:41:35.534Z,9.37
2018-12-17T18:44:17.022Z,9.57
2018-12-17T18:46:49.351Z,8.23
2018-12-17T18:49:22.626Z,7.67
2018-12-17T18:52:08.504Z,9.70
2018-12-17T18:54:51.489Z,7.33
2018-12-17T18:57:33.524Z,6.73
2018-12-17T19:00:10.574Z,6.07
2018-12-17T19:02:52.220Z,6.77
2018-12-17T19:05:27.703Z,6.30
2018-12-17T19:08:09.398Z,5.90
2018-12-17T19:10:51.540Z,6.40
2018-12-17T19:13:32.776Z,6.63
2018-12-17T19:16:14.849Z,6.73
2018-12-17T19:18:57.075Z,8.13
2018-12-17T19:21:32.709Z,7.87
2018-12-17T19:24:14.043Z,8.80
2018-12-17T19:26:45.312Z,10.03
2018-12-17T19:29:22.760Z,9.63
2018-12-17T19:32:01.277Z,12.30
2018-12-17T19:34:42.970Z,11.47
2018-12-17T19:37:23.575Z,12.67
2018-12-17T19:39:57.315Z,11.07
2018-12-17T19:42:28.567Z,8.80
2018-12-17T19:45:01.492Z,9.57
2018-12-17T19:47:43.269Z,9.77
2018-12-17T19:50:19.904Z,8.63
2018-12-17T19:52:54.935Z,8.27
2018-12-17T19:55:30.162Z,8.20
2018-12-17T19:58:12.137Z,8.40
2018-12-17T20:00:44.473Z,7.07
2018-12-17T20:03:26.339Z,6.83
2018-12-17T20:06:08.414Z,6.90
2018-12-17T20:08:51.709Z,5.90
2018-12-17T20:11:34.835Z,6.30
2018-12-17T20:14:16.015Z,5.60
2018-12-17T20:16:47.284Z,6.07
2018-12-17T20:19:21.869Z,6.30
2018-12-17T20:21:59.340Z,6.60
2018-12-17T20:24:40.747Z,6.50
2018-12-17T20:27:22.698Z,5.83
2018-12-17T20:29:55.998Z,5.80
2018-12-17T20:32:38.894Z,5.40
2018-12-17T20:35:21.039Z,5.63
2018-12-17T20:38:07.471Z,6.00
2018-12-17T20:40:45.619Z,7.50
2018-12-17T20:43:23.708Z,13.07
2018-12-17T20:46:06.771Z,20.13
2018-12-17T20:48:54.822Z,16.80
2018-12-17T20:51:36.476Z,9.30
2018-12-17T20:54:19.620Z,8.90
2018-12-17T20:57:03.199Z,11.73
2018-12-17T20:59:42.369Z,8.83
2018-12-17T21:02:26.655Z,7.77
2018-12-17T21:04:59.910Z,7.57
2018-12-17T21:10:11.422Z,6.17
2018-12-17T21:12:52.668Z,25.67
2018-12-17T21:15:29.233Z,20.70
2018-12-17T21:18:12.901Z,13.70
2018-12-17T21:20:47.632Z,11.30
2018-12-17T21:23:29.806Z,9.23
2018-12-17T21:26:11.568Z,7.13
2018-12-17T21:28:54.108Z,6.90
2018-12-17T21:31:31.159Z,7.73
2018-12-17T21:34:08.721Z,7.73
2018-12-17T21:36:50.674Z,8.77
2018-12-17T21:39:28.353Z,11.10
2018-12-17T21:42:13.364Z,10.57
2018-12-17T21:48:08.581Z,11.87
2018-12-17T21:50:44.052Z,10.43
2018-12-17T21:53:25.970Z,9.03
2018-12-17T21:56:08.493Z,8.53
2018-12-17T21:58:53.141Z,8.13
2018-12-17T22:01:35.044Z,8.37
2018-12-17T22:04:17.099Z,8.27
2018-12-17T22:07:03.101Z,7.63
2018-12-17T22:09:41.473Z,7.47
2018-12-17T22:12:14.483Z,6.37
2018-12-17T22:14:49.292Z,6.13
2018-12-17T22:17:30.457Z,6.43
2018-12-17T22:20:02.844Z,6.90
2018-12-17T22:22:46.285Z,5.70
2018-12-17T22:25:30.639Z,7.17
2018-12-17T22:28:12.203Z,6.20
2018-12-17T22:30:52.738Z,6.57
2018-12-17T22:33:28.700Z,6.80
2018-12-17T22:36:11.327Z,6.37
2018-12-17T22:38:54.407Z,6.50
2018-12-17T22:41:37.069Z,6.43
2018-12-17T22:44:12.682Z,6.30
2018-12-17T22:46:54.052Z,6.47
2018-12-17T22:49:26.552Z,6.60
2018-12-17T22:52:08.718Z,6.77
2018-12-17T22:54:47.404Z,7.10
2018-12-17T22:57:19.126Z,6.33
2018-12-17T22:59:56.262Z,6.30
2018-12-17T23:02:34.131Z,7.83
2018-12-17T23:05:16.146Z,6.53
2018-12-17T23:08:02.875Z,7.53
2018-12-17T23:10:52.743Z,6.67
2018-12-17T23:13:39.988Z,6.97
2018-12-17T23:16:26.612Z,7.13
2018-12-17T23:18:57.832Z,6.67
2018-12-17T23:21:40.035Z,7.03
2018-12-17T23:24:25.688Z,6.70
2018-12-17T23:27:19.259Z,6.50
2018-12-17T23:29:52.271Z,6.77
2018-12-17T23:32:39.376Z,7.77
2018-12-17T23:35:21.156Z,7.30
2018-12-17T23:38:04.284Z,7.20
2018-12-17T23:40:39.276Z,6.90
2018-12-17T23:43:10.609Z,7.17
2018-12-17T23:45:54.355Z,6.63
2018-12-17T23:48:29.875Z,6.97
2018-12-17T23:51:11.240Z,7.50
2018-12-17T23:53:53.332Z,7.77
2018-12-17T23:56:35.033Z,6.90
2018-12-17T23:59:11.630Z,6.87
